createdAt,value
2022-10-15T00:00:37.846Z,19.63
2022-10-15T00:03:04.470Z,21.10
2022-10-15T00:05:31.186Z,23.13
2022-10-15T00:07:57.712Z,25.70
2022-10-15T00:10:24.419Z,24.90
2022-10-15T00:12:51.082Z,21.50
2022-10-15T00:15:17.538Z,27.17
2022-10-15T00:17:43.985Z,21.27
2022-10-15T00:20:11.718Z,27.20
2022-10-15T00:22:38.632Z,25.73
2022-10-15T00:25:06.192Z,24.33
2022-10-15T00:27:34.118Z,29.10
2022-10-15T00:30:00.622Z,21.90
2022-10-15T00:32:27.077Z,26.63
2022-10-15T00:34:54.462Z,26.70
2022-10-15T00:37:21.410Z,29.03
2022-10-15T00:39:47.957Z,27.20
2022-10-15T00:42:14.650Z,27.30
2022-10-15T00:44:53.588Z,31.07
2022-10-15T00:47:38.822Z,30.60
2022-10-15T00:50:09.687Z,34.17
2022-10-15T00:52:45.563Z,34.40
2022-10-15T00:55:17.507Z,25.87
2022-10-15T00:57:47.116Z,30.30
2022-10-15T01:00:15.358Z,27.90
2022-10-15T01:02:43.169Z,28.93
2022-10-15T01:05:11.972Z,34.63
2022-10-15T01:07:38.455Z,27.77
2022-10-15T01:10:06.902Z,25.37
2022-10-15T01:12:39.233Z,28.43
2022-10-15T01:15:18.643Z,27.30
2022-10-15T01:17:50.512Z,28.70
2022-10-15T01:20:44.249Z,27.97
2022-10-15T01:23:25.971Z,30.57
2022-10-15T01:26:25.346Z,24.93
2022-10-15T01:29:13.578Z,24.70
2022-10-15T01:32:10.984Z,26.37
2022-10-15T01:35:02.985Z,26.33
2022-10-15T01:37:41.026Z,24.57
2022-10-15T01:40:20.826Z,23.30
2022-10-15T01:42:57.880Z,28.40
2022-10-15T01:46:06.315Z,27.73
2022-10-15T01:48:35.027Z,26.80
2022-10-15T01:51:05.958Z,25.10
2022-10-15T01:53:34.924Z,25.87
2022-10-15T01:56:06.651Z,25.67
2022-10-15T01:58:36.974Z,28.23
2022-10-15T02:01:04.273Z,29.17
2022-10-15T02:03:30.686Z,28.03
2022-10-15T02:06:06.191Z,30.73
2022-10-15T02:08:52.134Z,23.13
2022-10-15T02:11:19.761Z,33.23
2022-10-15T02:14:14.943Z,32.07
2022-10-15T02:16:49.381Z,33.77
2022-10-15T02:19:22.659Z,35.43
2022-10-15T02:21:57.667Z,35.03
2022-10-15T02:24:26.309Z,29.67
2022-10-15T02:26:56.631Z,32.97
2022-10-15T02:29:27.891Z,31.43
2022-10-15T02:31:58.001Z,30.57
2022-10-15T02:34:28.680Z,32.07
2022-10-15T02:37:01.838Z,30.13
2022-10-15T02:39:28.531Z,30.50
2022-10-15T02:41:56.773Z,37.03
2022-10-15T02:44:23.517Z,31.53
2022-10-15T02:46:49.943Z,33.67
2022-10-15T02:49:16.411Z,35.13
2022-10-15T02:51:42.777Z,40.00
2022-10-15T02:54:09.329Z,36.87
2022-10-15T02:56:39.134Z,41.23
2022-10-15T02:59:06.222Z,30.33
2022-10-15T03:01:33.242Z,38.67
2022-10-15T03:03:59.790Z,39.13
2022-10-15T03:06:26.293Z,42.40
2022-10-15T03:08:52.727Z,35.77
2022-10-15T03:11:19.066Z,36.20
2022-10-15T03:13:45.563Z,38.73
2022-10-15T03:16:12.508Z,38.03
2022-10-15T03:18:40.654Z,33.37
2022-10-15T03:21:07.637Z,31.80
2022-10-15T03:26:05.800Z,34.90
2022-10-15T03:28:32.197Z,39.37
2022-10-15T03:30:58.625Z,37.83
2022-10-15T03:33:25.447Z,39.60
2022-10-15T03:35:52.833Z,35.43
2022-10-15T03:38:19.622Z,34.33
2022-10-15T03:40:46.570Z,35.00
2022-10-15T03:43:12.940Z,37.40
2022-10-15T03:45:39.432Z,40.93
2022-10-15T03:48:06.257Z,34.40
2022-10-15T03:50:32.654Z,31.03
2022-10-15T03:52:59.061Z,35.10
2022-10-15T03:55:25.466Z,39.90
2022-10-15T03:57:51.811Z,36.40
2022-10-15T04:00:18.364Z,31.57
2022-10-15T04:02:44.713Z,41.43
2022-10-15T04:05:11.143Z,36.27
2022-10-15T04:07:37.735Z,38.40
2022-10-15T04:10:04.390Z,31.73
2022-10-15T04:12:30.804Z,37.87
2022-10-15T04:14:57.334Z,41.93
2022-10-15T04:17:23.694Z,29.53
2022-10-15T04:19:50.138Z,38.77
2022-10-15T04:22:16.634Z,35.57
2022-10-15T04:24:43.271Z,32.10
2022-10-15T04:27:10.571Z,35.57
2022-10-15T04:29:37.018Z,33.17
2022-10-15T04:32:03.793Z,32.77
2022-10-15T04:34:30.349Z,32.50
2022-10-15T04:36:56.895Z,32.67
2022-10-15T04:39:23.347Z,36.60
2022-10-15T04:41:49.762Z,35.23
2022-10-15T04:44:16.246Z,40.67
2022-10-15T04:46:42.665Z,39.50
2022-10-15T04:49:09.035Z,35.30
2022-10-15T04:51:35.534Z,36.20
2022-10-15T04:54:01.909Z,40.57
2022-10-15T04:56:28.540Z,39.63
2022-10-15T04:58:54.910Z,40.97
2022-10-15T05:01:21.537Z,38.13
2022-10-15T05:03:48.958Z,44.27
2022-10-15T05:06:18.297Z,43.67
2022-10-15T05:08:45.559Z,38.73
2022-10-15T05:11:18.602Z,45.63
2022-10-15T05:13:45.137Z,39.83
2022-10-15T05:16:14.764Z,38.13
2022-10-15T05:18:42.828Z,38.63
2022-10-15T05:21:09.950Z,39.20
2022-10-15T05:23:37.026Z,37.63
2022-10-15T05:26:09.045Z,35.53
2022-10-15T05:28:35.574Z,38.43
2022-10-15T05:31:13.645Z,43.47
2022-10-15T05:33:43.099Z,38.43
2022-10-15T05:36:12.549Z,37.97
2022-10-15T05:38:40.177Z,36.70
2022-10-15T05:41:06.591Z,37.90
2022-10-15T05:43:36.089Z,39.73
2022-10-15T05:46:05.405Z,35.70
2022-10-15T05:48:31.875Z,40.23
2022-10-15T05:51:07.149Z,42.27
2022-10-15T05:53:34.164Z,43.23
2022-10-15T05:56:00.730Z,38.47
2022-10-15T05:58:31.982Z,41.17
2022-10-15T06:01:04.009Z,45.10
2022-10-15T06:03:31.235Z,43.27
2022-10-15T06:05:57.707Z,48.27
2022-10-15T06:08:24.186Z,43.53
2022-10-15T06:10:50.608Z,41.30
2022-10-15T06:13:17.352Z,49.03
2022-10-15T06:15:45.801Z,46.50
2022-10-15T06:18:15.833Z,46.80
2022-10-15T06:20:43.714Z,46.20
2022-10-15T06:23:12.302Z,48.90
2022-10-15T06:25:38.803Z,49.13
2022-10-15T06:28:06.789Z,48.33
2022-10-15T06:30:33.305Z,48.13
2022-10-15T06:32:59.741Z,53.10
2022-10-15T06:35:30.218Z,48.67
2022-10-15T06:38:02.890Z,41.37
2022-10-15T06:40:30.542Z,53.33
2022-10-15T06:43:04.913Z,58.23
2022-10-15T06:45:32.528Z,51.27
2022-10-15T06:47:58.935Z,50.93
2022-10-15T06:50:25.346Z,51.40
2022-10-15T06:52:51.755Z,48.87
2022-10-15T06:55:18.284Z,50.87
2022-10-15T06:57:44.828Z,51.57
2022-10-15T07:00:11.966Z,48.37
2022-10-15T07:02:38.435Z,49.23
2022-10-15T07:05:05.274Z,47.53
2022-10-15T07:07:31.707Z,49.70
2022-10-15T07:09:58.145Z,46.07
2022-10-15T07:12:24.823Z,44.20
2022-10-15T07:14:52.101Z,41.90
2022-10-15T07:17:18.443Z,37.67
2022-10-15T07:19:45.800Z,44.83
2022-10-15T07:22:12.434Z,45.87
2022-10-15T07:24:38.870Z,40.80
2022-10-15T07:27:17.051Z,39.43
2022-10-15T07:29:44.956Z,43.53
2022-10-15T07:32:11.547Z,41.90
2022-10-15T07:34:37.911Z,40.40
2022-10-15T07:37:04.402Z,41.60
2022-10-15T07:39:30.767Z,44.43
2022-10-15T07:41:57.163Z,46.00
2022-10-15T07:44:23.555Z,41.53
2022-10-15T07:46:49.918Z,48.93
2022-10-15T07:49:16.397Z,43.67
2022-10-15T07:51:42.949Z,45.97
2022-10-15T07:54:09.482Z,45.20
2022-10-15T07:56:35.938Z,51.87
2022-10-15T07:59:02.481Z,49.60
2022-10-15T08:01:28.869Z,54.67
2022-10-15T08:03:55.418Z,41.93
2022-10-15T08:06:21.841Z,43.43
2022-10-15T08:08:48.360Z,47.27
2022-10-15T08:11:16.440Z,45.70
2022-10-15T08:13:44.291Z,45.63
2022-10-15T08:16:12.641Z,42.53
2022-10-15T08:18:39.220Z,40.50
2022-10-15T08:21:06.837Z,34.83
2022-10-15T08:23:35.075Z,36.90
2022-10-15T08:26:02.200Z,37.20
2022-10-15T08:28:30.627Z,35.57
2022-10-15T08:31:04.181Z,38.63
2022-10-15T08:33:32.517Z,39.60
2022-10-15T08:35:58.950Z,42.63
2022-10-15T08:38:26.857Z,44.87
2022-10-15T08:40:56.060Z,42.13
2022-10-15T08:43:25.497Z,44.10
2022-10-15T08:45:56.067Z,47.30
2022-10-15T08:48:31.540Z,54.37
2022-10-15T08:51:10.537Z,44.63
2022-10-15T08:53:42.421Z,44.97
2022-10-15T08:56:22.097Z,46.30
2022-10-15T08:59:17.236Z,46.27
2022-10-15T09:01:55.518Z,58.00
2022-10-15T09:04:34.329Z,40.90
2022-10-15T09:07:17.249Z,54.23
2022-10-15T09:09:53.877Z,49.63
2022-10-15T09:12:38.595Z,55.43
2022-10-15T09:15:13.173Z,49.63
2022-10-15T09:17:41.527Z,47.67
2022-10-15T09:20:16.409Z,47.87
2022-10-15T09:22:42.915Z,48.80
2022-10-15T09:25:17.289Z,50.93
2022-10-15T09:27:46.412Z,49.30
2022-10-15T09:30:42.047Z,48.17
2022-10-15T09:33:19.572Z,47.43
2022-10-15T09:35:55.629Z,50.40
2022-10-15T09:38:38.503Z,46.53
2022-10-15T09:41:32.557Z,44.90
2022-10-15T09:44:03.691Z,49.30
2022-10-15T09:46:33.232Z,39.40
2022-10-15T09:49:09.034Z,39.27
2022-10-15T09:51:43.987Z,44.57
2022-10-15T09:54:45.711Z,43.47
2022-10-15T09:57:14.967Z,40.57
2022-10-15T10:00:04.544Z,41.13
2022-10-15T10:02:31.025Z,40.07
2022-10-15T10:04:57.519Z,41.00
2022-10-15T10:07:36.046Z,36.47
2022-10-15T10:10:21.194Z,36.90
2022-10-15T10:12:47.771Z,31.47
2022-10-15T10:15:58.305Z,33.97
2022-10-15T10:18:26.071Z,33.53
2022-10-15T10:21:01.421Z,29.67
2022-10-15T10:23:35.075Z,26.03
2022-10-15T10:26:04.449Z,26.00
2022-10-15T10:28:44.133Z,27.07
2022-10-15T10:31:11.822Z,26.57
2022-10-15T10:33:50.111Z,27.60
2022-10-15T10:36:31.651Z,21.00
2022-10-15T10:39:13.977Z,27.13
2022-10-15T10:41:51.863Z,20.83
2022-10-15T10:44:26.263Z,23.90
2022-10-15T10:47:10.863Z,19.03
2022-10-15T10:49:41.219Z,20.27
2022-10-15T10:52:18.810Z,18.53
2022-10-15T10:54:46.223Z,19.53
2022-10-15T10:57:17.363Z,19.87
2022-10-15T10:59:51.259Z,17.83
2022-10-15T11:02:17.722Z,18.03
2022-10-15T11:04:44.183Z,14.77
2022-10-15T11:07:54.721Z,12.57
2022-10-15T11:10:29.435Z,11.33
2022-10-15T11:13:04.146Z,9.27
2022-10-15T11:15:45.808Z,7.70
2022-10-15T11:18:34.045Z,8.73
2022-10-15T11:21:25.448Z,8.20
2022-10-15T11:24:03.834Z,6.27
2022-10-15T11:26:37.608Z,8.50
2022-10-15T11:29:34.136Z,10.33
2022-10-15T11:32:42.203Z,9.93
2022-10-15T11:35:52.397Z,5.70
2022-10-15T11:38:44.371Z,7.40
2022-10-15T11:41:30.965Z,6.50
2022-10-15T11:44:06.815Z,4.93
2022-10-15T11:47:10.699Z,5.73
2022-10-15T11:50:02.425Z,5.47
2022-10-15T11:52:58.307Z,4.87
2022-10-15T11:55:36.524Z,5.30
2022-10-15T11:58:11.967Z,4.97
2022-10-15T12:00:49.432Z,5.63
2022-10-15T12:03:22.429Z,5.40
2022-10-15T12:06:02.341Z,6.00
2022-10-15T12:08:33.904Z,6.33
2022-10-15T12:11:19.933Z,6.27
2022-10-15T12:14:11.356Z,5.80
2022-10-15T12:17:02.897Z,4.93
2022-10-15T12:19:40.328Z,6.23
2022-10-15T12:22:11.617Z,6.33
2022-10-15T12:24:37.929Z,8.00
2022-10-15T12:27:19.428Z,6.83
2022-10-15T12:29:49.569Z,6.90
2022-10-15T12:32:25.070Z,6.10
2022-10-15T12:34:56.958Z,6.27
2022-10-15T12:37:26.848Z,5.57
2022-10-15T12:40:02.539Z,6.83
2022-10-15T12:42:31.473Z,5.10
2022-10-15T12:45:02.767Z,5.63
2022-10-15T12:47:55.298Z,5.90
2022-10-15T12:50:27.027Z,6.27
2022-10-15T12:53:05.550Z,5.53
2022-10-15T12:55:40.004Z,6.27
2022-10-15T12:58:33.254Z,3.97
2022-10-15T13:01:24.957Z,4.13
2022-10-15T13:03:51.348Z,6.30
2022-10-15T13:06:20.816Z,3.00
2022-10-15T13:09:11.630Z,3.03
2022-10-15T13:14:36.101Z,3.07
2022-10-15T13:17:13.496Z,3.07
2022-10-15T13:19:46.090Z,4.53
2022-10-15T13:22:28.174Z,1.73
2022-10-15T13:24:55.808Z,3.43
2022-10-15T13:27:24.298Z,4.57
2022-10-15T13:29:55.954Z,4.20
2022-10-15T13:32:23.217Z,2.83
2022-10-15T13:34:50.068Z,5.50
2022-10-15T13:37:27.424Z,2.60
2022-10-15T13:39:54.196Z,3.53
2022-10-15T13:42:25.279Z,4.80
2022-10-15T13:45:05.038Z,6.20
2022-10-15T13:47:41.094Z,3.53
2022-10-15T13:50:11.765Z,3.03
2022-10-15T13:52:40.787Z,2.77
2022-10-15T13:55:17.436Z,7.13
2022-10-15T14:00:26.430Z,5.17
2022-10-15T14:03:08.978Z,1.30
2022-10-15T14:05:35.760Z,3.43
2022-10-15T14:08:02.127Z,3.90
2022-10-15T14:10:28.550Z,1.87
2022-10-15T14:12:54.992Z,3.53
2022-10-15T14:15:41.219Z,1.40
2022-10-15T14:18:08.131Z,2.73
2022-10-15T14:20:34.521Z,2.47
2022-10-15T14:23:01.033Z,2.97
2022-10-15T14:25:27.570Z,1.33
2022-10-15T14:27:54.153Z,4.87
2022-10-15T14:30:39.446Z,4.50
2022-10-15T14:33:25.802Z,5.70
2022-10-15T14:36:06.630Z,1.37
2022-10-15T14:38:33.480Z,4.43
2022-10-15T14:41:06.348Z,4.13
2022-10-15T14:43:36.676Z,4.63
2022-10-15T14:46:11.833Z,2.83
2022-10-15T14:48:39.103Z,4.13
2022-10-15T14:51:16.104Z,4.90
2022-10-15T14:53:46.695Z,5.47
2022-10-15T14:56:18.903Z,2.97
2022-10-15T14:58:52.369Z,3.97
2022-10-15T15:01:20.539Z,4.03
2022-10-15T15:03:55.160Z,4.77
2022-10-15T15:06:21.738Z,1.27
2022-10-15T15:08:48.295Z,5.63
2022-10-15T15:11:19.305Z,4.47
2022-10-15T15:13:46.938Z,5.73
2022-10-15T15:16:15.875Z,4.37
2022-10-15T15:18:43.903Z,5.10
2022-10-15T15:21:16.609Z,1.30
2022-10-15T15:23:43.722Z,6.00
2022-10-15T15:26:10.100Z,3.27
2022-10-15T15:28:36.681Z,1.87
2022-10-15T15:31:06.808Z,5.67
2022-10-15T15:33:34.330Z,3.80
2022-10-15T15:36:13.283Z,2.20
2022-10-15T15:38:40.092Z,2.30
2022-10-15T15:41:20.562Z,7.17
2022-10-15T15:43:48.068Z,1.63
2022-10-15T15:46:15.375Z,3.70
2022-10-15T15:48:41.975Z,2.67
2022-10-15T15:51:22.293Z,3.00
2022-10-15T15:53:49.053Z,2.10
2022-10-15T15:56:15.620Z,3.73
2022-10-15T15:58:42.050Z,5.07
2022-10-15T16:01:08.865Z,2.53
2022-10-15T16:03:35.288Z,2.20
2022-10-15T16:06:01.719Z,3.47
2022-10-15T16:08:28.135Z,2.00
2022-10-15T16:10:54.515Z,1.63
2022-10-15T16:13:21.338Z,2.17
2022-10-15T16:15:47.831Z,1.23
2022-10-15T16:18:14.226Z,4.63
2022-10-15T16:20:46.375Z,5.10
2022-10-15T16:23:14.930Z,3.00
2022-10-15T16:25:41.556Z,1.90
2022-10-15T16:28:08.182Z,4.33
2022-10-15T16:30:34.535Z,3.33
2022-10-15T16:33:00.962Z,5.93
2022-10-15T16:35:27.536Z,4.23
2022-10-15T16:37:56.080Z,5.33
2022-10-15T16:40:22.909Z,5.03
2022-10-15T16:42:49.318Z,3.23
2022-10-15T16:45:15.941Z,5.80
2022-10-15T16:47:42.337Z,6.47
2022-10-15T16:50:09.617Z,4.27
2022-10-15T16:52:36.156Z,4.77
2022-10-15T16:55:03.598Z,5.70
2022-10-15T16:57:30.071Z,7.93
2022-10-15T16:59:56.482Z,6.23
2022-10-15T17:02:23.179Z,7.27
2022-10-15T17:04:49.861Z,4.77
2022-10-15T17:07:17.314Z,6.63
2022-10-15T17:09:45.000Z,4.70
2022-10-15T17:12:11.893Z,8.17
2022-10-15T17:14:38.304Z,6.63
2022-10-15T17:17:04.742Z,8.27
2022-10-15T17:19:33.385Z,8.60
2022-10-15T17:22:00.782Z,8.43
2022-10-15T17:24:27.233Z,5.90
2022-10-15T17:26:54.774Z,8.50
2022-10-15T17:29:22.986Z,5.60
2022-10-15T17:31:50.575Z,7.57
2022-10-15T17:34:18.026Z,5.33
2022-10-15T17:36:47.280Z,7.80
2022-10-15T17:39:16.485Z,12.20
2022-10-15T17:41:43.128Z,5.50
2022-10-15T17:44:11.227Z,8.77
2022-10-15T17:46:38.603Z,8.63
2022-10-15T17:49:05.586Z,5.57
2022-10-15T17:51:33.070Z,8.50
2022-10-15T17:54:00.303Z,5.33
2022-10-15T17:56:29.991Z,6.87
2022-10-15T17:59:00.596Z,5.23
2022-10-15T18:04:27.673Z,7.13
2022-10-15T18:06:54.067Z,5.27
2022-10-15T18:09:20.431Z,5.03
2022-10-15T18:11:48.516Z,3.40
2022-10-15T18:14:15.042Z,5.00
2022-10-15T18:16:41.473Z,4.23
2022-10-15T18:19:08.106Z,7.63
2022-10-15T18:21:34.822Z,4.77
2022-10-15T18:24:01.355Z,5.00
2022-10-15T18:26:28.011Z,4.33
2022-10-15T18:28:54.503Z,6.40
2022-10-15T18:31:22.448Z,3.93
2022-10-15T18:33:51.961Z,5.67
2022-10-15T18:36:23.451Z,6.27
2022-10-15T18:38:50.511Z,2.77
2022-10-15T18:41:19.964Z,5.53
2022-10-15T18:44:04.698Z,9.37
2022-10-15T18:46:33.670Z,5.27
2022-10-15T18:49:00.699Z,3.33
2022-10-15T18:51:28.965Z,4.53
2022-10-15T18:53:55.482Z,4.77
2022-10-15T18:56:22.755Z,3.53
2022-10-15T18:58:50.023Z,3.77
2022-10-15T19:01:37.148Z,3.87
2022-10-15T19:04:07.031Z,7.20
2022-10-15T19:06:36.325Z,7.33
2022-10-15T19:09:06.720Z,7.93
2022-10-15T19:11:34.349Z,8.83
2022-10-15T19:14:02.392Z,6.80
2022-10-15T19:16:28.945Z,4.23
2022-10-15T19:18:55.408Z,3.07
2022-10-15T19:21:21.800Z,5.53
2022-10-15T19:23:48.173Z,5.97
2022-10-15T19:26:15.668Z,3.57
2022-10-15T19:28:42.902Z,3.07
2022-10-15T19:31:12.866Z,4.83
2022-10-15T19:33:40.325Z,4.00
2022-10-15T19:36:06.983Z,4.07
2022-10-15T19:38:33.680Z,2.87
2022-10-15T19:41:04.127Z,4.27
2022-10-15T19:43:30.631Z,3.80
2022-10-15T19:46:03.050Z,2.43
2022-10-15T19:48:29.571Z,5.40
2022-10-15T19:50:55.912Z,4.73
2022-10-15T19:53:22.299Z,8.70
2022-10-15T19:55:56.751Z,10.30
2022-10-15T19:58:23.942Z,4.60
2022-10-15T20:00:51.231Z,2.57
2022-10-15T20:03:18.005Z,5.13
2022-10-15T20:05:45.885Z,3.80
2022-10-15T20:08:13.518Z,5.00
2022-10-15T20:10:41.674Z,5.00
2022-10-15T20:13:08.099Z,3.53
2022-10-15T20:15:34.670Z,5.27
2022-10-15T20:18:01.329Z,2.80
2022-10-15T20:20:27.869Z,5.40
2022-10-15T20:22:54.202Z,2.90
2022-10-15T20:25:20.693Z,3.67
2022-10-15T20:27:47.077Z,4.67
2022-10-15T20:30:13.646Z,3.53
2022-10-15T20:32:40.506Z,3.20
2022-10-15T20:35:07.822Z,7.27
2022-10-15T20:37:34.234Z,3.40
2022-10-15T20:40:00.997Z,4.20
2022-10-15T20:42:27.793Z,6.57
2022-10-15T20:44:54.484Z,7.53
2022-10-15T20:47:22.376Z,5.17
2022-10-15T20:49:51.582Z,4.47
2022-10-15T20:52:18.007Z,1.93
2022-10-15T20:54:44.460Z,6.60
2022-10-15T20:57:11.410Z,3.77
2022-10-15T20:59:37.817Z,3.60
2022-10-15T21:02:04.229Z,3.80
2022-10-15T21:04:30.675Z,1.63
2022-10-15T21:06:59.696Z,2.73
2022-10-15T21:09:27.135Z,3.20
2022-10-15T21:11:53.549Z,4.87
2022-10-15T21:14:20.057Z,1.97
2022-10-15T21:16:46.832Z,2.60
2022-10-15T21:19:13.876Z,2.20
2022-10-15T21:21:40.375Z,2.47
2022-10-15T21:24:06.968Z,5.30
2022-10-15T21:26:33.489Z,4.97
2022-10-15T21:29:00.353Z,1.57
2022-10-15T21:31:27.702Z,3.90
2022-10-15T21:33:57.658Z,5.43
2022-10-15T21:36:28.229Z,2.27
2022-10-15T21:39:06.820Z,5.73
2022-10-15T21:41:35.320Z,3.90
2022-10-15T21:44:03.695Z,2.43
2022-10-15T21:46:33.206Z,6.53
2022-10-15T21:49:01.357Z,3.90
2022-10-15T21:51:30.684Z,4.67
2022-10-15T21:53:58.678Z,2.73
2022-10-15T21:56:25.582Z,5.50
2022-10-15T21:58:53.367Z,3.87
2022-10-15T22:01:25.711Z,2.63
2022-10-15T22:03:57.026Z,1.23
2022-10-15T22:06:23.578Z,3.00
2022-10-15T22:08:50.427Z,2.10
2022-10-15T22:11:20.041Z,2.17
2022-10-15T22:13:49.121Z,5.77
2022-10-15T22:16:16.807Z,4.40
2022-10-15T22:18:43.752Z,4.67
2022-10-15T22:21:17.329Z,4.37
2022-10-15T22:23:46.724Z,1.20
2022-10-15T22:26:14.222Z,1.53
2022-10-15T22:28:41.245Z,4.23
2022-10-15T22:31:14.215Z,3.27
2022-10-15T22:33:41.707Z,2.07
2022-10-15T22:36:13.688Z,4.83
2022-10-15T22:38:41.940Z,4.10
2022-10-15T22:41:09.840Z,1.60
2022-10-15T22:43:36.792Z,3.17
2022-10-15T22:46:04.828Z,4.10
2022-10-15T22:48:36.134Z,2.73
2022-10-15T22:51:04.531Z,1.90
2022-10-15T22:53:31.716Z,2.63
2022-10-15T22:55:59.546Z,4.90
2022-10-15T22:58:26.972Z,3.37
2022-10-15T23:00:53.645Z,0.63
2022-10-15T23:03:20.881Z,3.03
2022-10-15T23:05:54.537Z,1.40
2022-10-15T23:08:21.608Z,3.40
2022-10-15T23:10:48.394Z,2.00
2022-10-15T23:13:15.304Z,2.40
2022-10-15T23:15:41.916Z,4.80
2022-10-15T23:18:08.281Z,1.67
2022-10-15T23:20:38.302Z,0.87
2022-10-15T23:23:05.526Z,1.60
2022-10-15T23:25:38.930Z,2.90
2022-10-15T23:28:05.558Z,1.57
2022-10-15T23:30:32.068Z,3.10
2022-10-15T23:33:00.892Z,1.27
2022-10-15T23:35:27.310Z,3.23
2022-10-15T23:37:53.747Z,2.47
2022-10-15T23:40:20.148Z,1.07
2022-10-15T23:42:46.540Z,1.93
2022-10-15T23:45:12.935Z,1.57
2022-10-15T23:47:39.461Z,4.50
2022-10-15T23:50:06.062Z,1.70
2022-10-15T23:52:32.494Z,5.83
2022-10-15T23:54:58.850Z,4.30
2022-10-15T23:57:25.446Z,4.00
2022-10-15T23:59:51.963Z,1.73
